Αρχική σελίδα
METAR-TAF:

METAR-TAF

Αεροδρόμια :

Oban, Σκωτία

γεωγραφικό πλάτος: 56-27-49N, γεωγραφικό μήκος: 5-24-00W, υψόμετρο: 7 μ

Παρών καιρός

Η αναφορά έγινε 12 ώρες και 40 λεπτά πριν, στις 14:20 UTC
Άνεμος 9 kt από Δ
Θερμοκρασία 17°C
Υγρασία 77%
Πίεση 1010 hPa
Ορατότητα 10 χλμ και άνω
Διάσπαρτα νέφη σε ύψος 2500 πόδια

METAR: EGEO 221420Z 27009KT 9999 SCT025 17/13 Q1010

Χρόνος: 04:00 (03:00 UTC)

Πρόγνωση Καιρού

Η αναφορά έγινε 13 ώρες και 4 λεπτά πριν, στις 13:56 UTC
Η πρόγνωση ισχύει από τις 22 στις 15 UTC έως τις 22 στις 17 UTC
Άνεμος 5 kt από Δ/BΔ
Ορατότητα 10 χλμ και άνω
Διάσπαρτα νέφη σε ύψος 2000 πόδια
Πιθανότητα 40% :
Προσωρινά
από 22 στις 15 UTC έως τις 22 στις 17 UTC
Ορατότητα: 5000 μ
Όμβροι,

TAF: EGEO 221356Z 2215/2217 29005KT 9999 SCT020 PROB40 TEMPO 2215/2217 5000 SHRA

Μετεωρολογικές αναφορές και προγνώσεις για περισσότερα από 4000 αεροδρόμια (δελτία METAR και TAF).

Οι διαθέσιμοι σταθμοί απεικονίζονται στο χάρτη με κίτρινες και κόκκινες κουκκίδες.

Μετακινήστε το ποντίκι πάνω από τις κουκκίδες για να δείτε το όνομα του σταθμού.

Στη συνέχεια, κάντε κλικ για να δείτε τις μετεωρολογικές αναφορές και τις προγνώσεις καιρού.

Για να αλλάξετε το χάρτη: κάντε κλικ στα πράσινα κουμπιά με τον μαύρο σταυρό για να ζουμάρετε, στο πράσινο κουμπί με την παύλα για να αφαιρέσετε το ζουμ ή στα πράσινα βέλη για να αντιπαραβάλλετε χάρτες.


METAR-TAF: